Home   Weather   Germany   Bielefeld   Past weeks
Flag for Germany

Past Weather in Bielefeld, North Rhine-Westphalia, Germany — Yesterday and Last 2 Weeks

Currently: 82 °F. Passing clouds. (Weather station: Paderborn / Lippstadt, Germany). See more current weather

Past Weather in Bielefeld — Graph

°F

Bielefeld Temperature Yesterday

Maximum temperature yesterday: 86 °F (at 4:50 pm)
Minimum temperature yesterday: 57 °F (at 5:50 am)
Average temperature yesterday: 74 °F

High & Low Weather Summary for the Past Weeks

 TemperatureHumidityPressure
High95 °F (Aug 4, 1:50 pm)100% (Jul 31, 9:20 pm)30.36 "Hg (Jul 31, 9:20 pm)
Low46 °F (Aug 7, 3:20 am)19% (Aug 11, 4:50 pm)29.89 "Hg (Aug 4, 9:20 am)
Average69 °F57%30.13 "Hg
* Reported Jul 29 12:20 pm — Aug 13 12:20 pm, Bielefeld. Weather by CustomWeather, © 2022

Note: Actual official high and low records may vary slightly from our data, if they occured in-between our weather recording intervals... More about our weather records

Bielefeld Weather History for the Previous 24 Hours

Scroll right to see more
 ConditionsComfort  
Time TempWeatherWind HumidityBarometerVisibility
12:20 pm
Sat, Aug 13
82 °FPassing clouds.9 mph30%30.07 "HgN/A
11:50 am81 °FPassing clouds.8 mph32%30.09 "HgN/A
11:20 am81 °FSunny.8 mph34%30.09 "Hg10 mi
10:50 am81 °FPassing clouds.8 mph34%30.09 "HgN/A
10:20 am79 °FPassing clouds.6 mph37%30.09 "HgN/A
9:50 am77 °FPassing clouds.6 mph39%30.09 "HgN/A
9:20 am75 °FPassing clouds.5 mph41%30.09 "HgN/A
8:50 am72 °FSunny.6 mph47%30.09 "Hg10 mi
8:20 am70 °FSunny.6 mph46%30.09 "Hg10 mi
7:50 am66 °FSunny.7 mph52%30.09 "Hg10 mi
7:20 am64 °FSunny.7 mph56%30.09 "Hg10 mi
6:50 am63 °FSunny.7 mph56%30.09 "Hg10 mi
6:20 am63 °FSunny.7 mph56%30.09 "Hg10 mi
5:50 am64 °FClear.5 mph52%30.09 "Hg10 mi
5:20 am64 °FClear.8 mph52%30.09 "Hg10 mi
4:50 am64 °FPassing clouds.5 mph52%30.09 "HgN/A
4:20 am64 °FClear.8 mph49%30.09 "Hg10 mi
3:50 am63 °FClear.6 mph56%30.09 "Hg10 mi
3:20 am64 °FPassing clouds.3 mph52%30.09 "HgN/A
2:50 am64 °FClear.2 mph49%30.09 "Hg10 mi
1:20 am68 °FClear.3 mph43%30.09 "Hg10 mi
12:50 am68 °FClear.3 mph43%30.09 "Hg10 mi
12:20 am68 °FClear.6 mph43%30.09 "Hg10 mi
11:50 pm
Fri, Aug 12
70 °FPassing clouds.5 mph38%30.09 "HgN/A
11:20 pm70 °FClear.5 mph38%30.09 "Hg10 mi
10:50 pm72 °FPassing clouds.5 mph36%30.09 "HgN/A
10:20 pm72 °FClear.6 mph36%30.09 "Hg10 mi
9:50 pm73 °FClear.6 mph31%30.09 "Hg10 mi
9:20 pm75 °FClear.5 mph29%30.09 "Hg10 mi
8:50 pm79 °FSunny.7 mph24%30.09 "Hg10 mi
8:20 pm81 °FSunny.9 mph23%30.07 "Hg10 mi
7:50 pm82 °FSunny.10 mph21%30.07 "Hg10 mi
7:20 pm82 °FSunny.12 mph21%30.07 "Hg10 mi
6:50 pm84 °FPassing clouds.14 mph20%30.07 "HgN/A
6:20 pm84 °FSunny.13 mph20%30.09 "Hg10 mi
5:50 pm84 °FSunny.13 mph20%30.09 "Hg10 mi
5:20 pm86 °FPassing clouds.10 mph20%30.09 "HgN/A
4:50 pm86 °FPassing clouds.9 mph20%30.09 "HgN/A
4:20 pm84 °FSunny.12 mph22%30.09 "Hg10 mi
3:50 pm84 °FPassing clouds.9 mph20%30.09 "HgN/A
3:20 pm84 °FPassing clouds.8 mph22%30.09 "HgN/A
2:50 pm84 °FPassing clouds.12 mph23%30.12 "HgN/A
2:20 pm84 °FPassing clouds.10 mph22%30.12 "HgN/A
Weather by CustomWeather, © 2022

See weather overview